createdAt,value
2022-08-09T00:00:24.367Z,68.76
2022-08-09T00:02:55.695Z,68.67
2022-08-09T00:06:17.893Z,68.81
2022-08-09T00:08:31.486Z,68.78
2022-08-09T00:11:06.074Z,68.79
2022-08-09T00:13:54.020Z,69.11
2022-08-09T00:16:26.478Z,68.98
2022-08-09T00:19:09.475Z,69.23
2022-08-09T00:21:56.226Z,69.00
2022-08-09T00:24:31.444Z,69.24
2022-08-09T00:27:00.319Z,69.32
2022-08-09T00:30:10.119Z,69.38
2022-08-09T00:32:25.425Z,69.33
2022-08-09T00:34:58.966Z,69.33
2022-08-09T00:37:30.239Z,69.41
2022-08-09T00:40:13.967Z,69.76
2022-08-09T00:44:14.429Z,69.81
2022-08-09T00:45:35.385Z,70.57
2022-08-09T00:48:05.876Z,70.99
2022-08-09T00:50:37.927Z,71.09
2022-08-09T00:53:10.279Z,71.04
2022-08-09T00:56:05.425Z,70.94
2022-08-09T00:58:32.089Z,70.96
2022-08-09T01:01:09.283Z,70.89
2022-08-09T01:03:56.831Z,70.84
2022-08-09T01:06:54.223Z,70.90
2022-08-09T01:09:36.617Z,70.92
2022-08-09T01:12:18.774Z,70.75
2022-08-09T01:14:52.623Z,70.86
2022-08-09T01:17:30.296Z,70.62
2022-08-09T01:20:02.721Z,70.72
2022-08-09T01:23:04.847Z,70.71
2022-08-09T01:26:15.663Z,70.96
2022-08-09T01:28:49.098Z,70.76
2022-08-09T01:32:32.142Z,71.11
2022-08-09T01:34:15.104Z,70.93
2022-08-09T01:36:46.540Z,70.98
2022-08-09T01:39:19.157Z,70.85
2022-08-09T01:42:01.276Z,70.85
2022-08-09T01:44:35.223Z,70.78
2022-08-09T01:47:07.890Z,70.78
2022-08-09T01:49:41.113Z,70.90
2022-08-09T01:52:19.418Z,70.77
2022-08-09T01:54:51.129Z,70.69
2022-08-09T01:57:25.577Z,70.83
2022-08-09T02:00:19.283Z,70.79
2022-08-09T02:02:54.004Z,70.84
2022-08-09T02:05:35.432Z,70.66
2022-08-09T02:08:39.947Z,70.83
2022-08-09T02:11:04.359Z,70.85
2022-08-09T02:13:55.280Z,70.77
2022-08-09T02:16:58.973Z,70.88
2022-08-09T02:19:34.883Z,70.96
2022-08-09T02:22:19.142Z,70.61
2022-08-09T02:25:03.293Z,70.45
2022-08-09T02:27:58.246Z,70.43
2022-08-09T02:30:26.611Z,70.18
2022-08-09T02:33:02.706Z,70.10
2022-08-09T02:36:02.012Z,70.12
2022-08-09T02:38:30.361Z,69.97
2022-08-09T02:41:05.181Z,69.79
2022-08-09T02:43:42.639Z,69.85
2022-08-09T02:46:27.511Z,69.51
2022-08-09T02:49:00.398Z,69.52
2022-08-09T02:51:33.018Z,69.53
2022-08-09T02:54:10.069Z,69.46
2022-08-09T02:56:41.722Z,69.49
2022-08-09T02:59:26.665Z,69.59
2022-08-09T03:02:11.873Z,69.52
2022-08-09T03:05:04.337Z,69.35
2022-08-09T03:07:35.958Z,69.25
2022-08-09T03:10:07.727Z,69.62
2022-08-09T03:12:39.313Z,69.81
2022-08-09T03:15:11.245Z,69.71
2022-08-09T03:17:40.466Z,69.82
2022-08-09T03:20:11.944Z,69.70
2022-08-09T03:22:44.846Z,69.84
2022-08-09T03:25:56.743Z,69.79
2022-08-09T03:28:11.302Z,69.82
2022-08-09T03:30:40.635Z,69.98
2022-08-09T03:33:17.725Z,70.03
2022-08-09T03:36:13.716Z,70.12
2022-08-09T03:38:42.733Z,70.23
2022-08-09T03:41:15.215Z,70.22
2022-08-09T03:44:04.036Z,70.25
2022-08-09T03:46:36.936Z,70.22
2022-08-09T03:49:09.076Z,70.42
2022-08-09T03:51:57.486Z,70.60
2022-08-09T03:54:32.504Z,70.58
2022-08-09T03:57:17.987Z,70.87
2022-08-09T03:59:54.295Z,70.98
2022-08-09T04:02:28.869Z,70.92
2022-08-09T04:05:01.208Z,71.20
2022-08-09T04:07:52.319Z,71.18
2022-08-09T04:10:29.555Z,71.23
2022-08-09T04:13:04.074Z,71.39
2022-08-09T04:15:52.440Z,71.49
2022-08-09T04:18:48.047Z,71.29
2022-08-09T04:21:22.837Z,71.34
2022-08-09T04:23:57.801Z,71.77
2022-08-09T04:26:35.214Z,72.29
2022-08-09T04:29:12.114Z,72.25
2022-08-09T04:31:47.201Z,72.63
2022-08-09T04:34:19.222Z,73.17
2022-08-09T04:36:59.390Z,73.37
2022-08-09T04:39:31.244Z,73.42
2022-08-09T04:42:03.333Z,73.64
2022-08-09T04:44:33.346Z,73.74
2022-08-09T04:47:05.668Z,74.11
2022-08-09T04:50:31.873Z,74.38
2022-08-09T04:53:05.905Z,74.34
2022-08-09T04:55:57.130Z,74.39
2022-08-09T04:58:27.736Z,74.45
2022-08-09T05:00:57.543Z,74.26
2022-08-09T05:03:42.953Z,74.44
2022-08-09T05:06:26.809Z,74.32
2022-08-09T05:08:59.887Z,74.16
2022-08-09T05:11:35.426Z,73.93
2022-08-09T05:14:06.037Z,73.94
2022-08-09T05:16:58.333Z,73.87
2022-08-09T05:19:25.919Z,73.61
2022-08-09T05:21:55.523Z,73.38
2022-08-09T05:24:27.186Z,73.26
2022-08-09T05:26:57.026Z,72.92
2022-08-09T05:29:31.159Z,72.71
2022-08-09T05:32:01.380Z,72.36
2022-08-09T05:34:32.304Z,72.18
2022-08-09T05:37:05.273Z,72.01
2022-08-09T05:39:36.080Z,71.90
2022-08-09T05:42:17.692Z,71.83
2022-08-09T05:44:52.127Z,71.74
2022-08-09T05:47:21.509Z,71.71
2022-08-09T05:50:25.210Z,71.52
2022-08-09T05:52:39.076Z,71.47
2022-08-09T05:55:08.685Z,71.15
2022-08-09T05:57:57.020Z,71.36
2022-08-09T06:00:28.980Z,71.19
2022-08-09T06:02:58.276Z,71.33
2022-08-09T06:05:50.011Z,70.97
2022-08-09T06:08:19.440Z,70.89
2022-08-09T06:10:52.338Z,70.58
2022-08-09T06:13:22.865Z,70.76
2022-08-09T06:15:52.379Z,70.48
2022-08-09T06:18:24.833Z,70.38
2022-08-09T06:20:57.290Z,69.90
2022-08-09T06:23:58.820Z,69.80
2022-08-09T06:26:20.211Z,69.61
2022-08-09T06:28:59.579Z,70.02
2022-08-09T06:31:31.428Z,69.86
2022-08-09T06:34:08.155Z,70.02
2022-08-09T06:36:37.772Z,69.85
2022-08-09T06:39:12.819Z,69.74
2022-08-09T06:42:08.451Z,69.81
2022-08-09T06:44:36.741Z,69.37
2022-08-09T06:47:06.009Z,69.23
2022-08-09T06:50:12.834Z,69.11
2022-08-09T06:52:25.337Z,68.96
2022-08-09T06:54:54.270Z,68.59
2022-08-09T06:57:25.893Z,68.62
2022-08-09T07:00:49.343Z,68.00
2022-08-09T07:03:06.005Z,68.10
2022-08-09T07:05:58.280Z,67.88
2022-08-09T07:08:22.967Z,67.53
2022-08-09T07:10:53.102Z,67.46
2022-08-09T07:13:29.547Z,67.61
2022-08-09T07:16:40.475Z,67.54
2022-08-09T07:18:49.974Z,67.26
2022-08-09T07:21:18.703Z,67.15
2022-08-09T07:23:58.293Z,67.01
2022-08-09T07:26:27.495Z,66.70
2022-08-09T07:29:01.331Z,66.68
2022-08-09T07:31:45.979Z,66.55
2022-08-09T07:34:20.535Z,66.50
2022-08-09T07:36:49.921Z,66.33
2022-08-09T07:39:20.461Z,66.12
2022-08-09T07:42:06.974Z,65.63
2022-08-09T07:44:53.235Z,65.77
2022-08-09T07:47:23.700Z,65.71
2022-08-09T07:50:05.144Z,65.41
2022-08-09T07:52:36.810Z,64.77
2022-08-09T07:55:08.727Z,64.76
2022-08-09T07:57:37.476Z,64.42
2022-08-09T08:00:36.559Z,64.38
2022-08-09T08:03:08.344Z,64.35
2022-08-09T08:05:54.394Z,64.01
2022-08-09T08:09:01.457Z,64.00
2022-08-09T08:12:24.612Z,63.88
2022-08-09T08:14:04.867Z,63.52
2022-08-09T08:16:34.841Z,63.27
2022-08-09T08:19:04.732Z,63.17
2022-08-09T08:21:33.206Z,63.18
2022-08-09T08:24:12.101Z,62.97
2022-08-09T08:26:56.188Z,63.30
2022-08-09T08:29:28.057Z,61.89
2022-08-09T08:32:03.619Z,58.50
2022-08-09T08:34:36.283Z,54.76
2022-08-09T08:37:05.396Z,52.30
2022-08-09T08:39:43.366Z,49.65
2022-08-09T08:42:13.067Z,47.19
2022-08-09T08:44:43.905Z,44.69
2022-08-09T08:47:15.135Z,43.76
2022-08-09T08:49:47.916Z,42.47
2022-08-09T08:55:07.880Z,39.49
2022-08-09T08:57:37.156Z,38.82
2022-08-09T09:00:16.989Z,38.31
2022-08-09T09:02:52.550Z,37.82
2022-08-09T09:05:57.397Z,36.94
2022-08-09T09:08:30.785Z,36.11
2022-08-09T09:11:05.510Z,36.34
2022-08-09T09:13:54.657Z,37.01
2022-08-09T09:16:30.659Z,38.31
2022-08-09T09:19:22.767Z,39.43
2022-08-09T09:22:07.978Z,40.61
2022-08-09T09:24:43.684Z,41.19
2022-08-09T09:28:02.858Z,41.42
2022-08-09T09:30:33.040Z,41.97
2022-08-09T09:33:16.820Z,42.26
2022-08-09T09:36:01.972Z,42.46
2022-08-09T09:38:46.615Z,43.24
2022-08-09T09:41:49.810Z,43.91
2022-08-09T09:44:33.936Z,43.84
2022-08-09T09:47:10.162Z,44.13
2022-08-09T09:50:13.381Z,44.21
2022-08-09T09:52:36.991Z,43.72
2022-08-09T09:55:24.207Z,43.75
2022-08-09T09:58:02.983Z,44.38
2022-08-09T10:00:54.266Z,44.23
2022-08-09T10:03:44.617Z,43.54
2022-08-09T10:06:25.323Z,43.06
2022-08-09T10:09:00.717Z,42.91
2022-08-09T10:12:01.143Z,43.05
2022-08-09T10:14:33.658Z,43.01
2022-08-09T10:17:54.839Z,43.45
2022-08-09T10:20:00.337Z,43.33
2022-08-09T10:22:36.318Z,43.52
2022-08-09T10:25:12.256Z,43.90
2022-08-09T10:27:57.533Z,43.99
2022-08-09T10:32:13.249Z,44.44
2022-08-09T10:34:04.295Z,44.72
2022-08-09T10:36:05.521Z,44.87
2022-08-09T10:38:55.964Z,44.71
2022-08-09T10:41:27.854Z,44.68
2022-08-09T10:44:01.738Z,45.42
2022-08-09T10:48:12.620Z,45.88
2022-08-09T10:50:14.892Z,45.58
2022-08-09T10:53:05.598Z,45.38
2022-08-09T10:55:55.319Z,45.13
2022-08-09T10:58:35.002Z,44.92
2022-08-09T11:03:13.192Z,44.63
2022-08-09T11:04:30.943Z,44.46
2022-08-09T11:07:56.633Z,43.90
2022-08-09T11:10:38.896Z,43.89
2022-08-09T11:13:50.898Z,44.40
2022-08-09T11:16:38.493Z,45.13
2022-08-09T11:19:10.065Z,45.22
2022-08-09T11:22:10.708Z,45.55
2022-08-09T11:25:08.233Z,45.53
2022-08-09T11:28:04.488Z,46.00
2022-08-09T11:30:36.009Z,45.82
2022-08-09T11:33:09.492Z,45.93
2022-08-09T11:35:49.136Z,46.09
2022-08-09T11:38:22.636Z,46.00
2022-08-09T11:41:05.549Z,45.72
2022-08-09T11:43:42.251Z,45.05
2022-08-09T11:46:10.770Z,43.67
2022-08-09T11:48:50.478Z,43.80
2022-08-09T11:52:38.696Z,44.28
2022-08-09T11:54:27.887Z,44.18
2022-08-09T11:58:00.631Z,43.99
2022-08-09T12:00:27.336Z,42.44
2022-08-09T12:02:57.521Z,41.86
2022-08-09T12:05:37.883Z,41.54
2022-08-09T12:08:12.405Z,40.64
2022-08-09T12:10:45.275Z,40.51
2022-08-09T12:14:10.680Z,40.42
2022-08-09T12:16:37.657Z,40.22
2022-08-09T12:19:11.366Z,40.53
2022-08-09T12:21:50.325Z,40.60
2022-08-09T12:24:24.222Z,39.82
2022-08-09T12:28:58.553Z,38.74
2022-08-09T12:30:01.703Z,38.44
2022-08-09T12:32:44.623Z,36.78
2022-08-09T12:35:19.277Z,36.56
2022-08-09T12:37:51.993Z,36.13
2022-08-09T12:40:23.359Z,36.04
2022-08-09T12:42:53.565Z,36.19
2022-08-09T12:45:34.238Z,35.94
2022-08-09T12:48:20.114Z,35.23
2022-08-09T12:50:57.428Z,35.24
2022-08-09T12:53:37.093Z,35.04
2022-08-09T12:56:39.895Z,35.00
2022-08-09T12:59:11.042Z,34.64
2022-08-09T13:01:46.829Z,34.68
2022-08-09T13:04:33.323Z,34.49
2022-08-09T13:07:13.722Z,34.61
2022-08-09T13:09:55.757Z,34.01
2022-08-09T13:12:30.854Z,34.29
2022-08-09T13:15:08.032Z,34.06
2022-08-09T13:17:58.878Z,34.23
2022-08-09T13:20:37.234Z,33.98
2022-08-09T13:24:16.800Z,33.58
2022-08-09T13:26:10.125Z,33.90
2022-08-09T13:28:39.425Z,33.41
2022-08-09T13:32:14.449Z,33.71
2022-08-09T13:33:58.489Z,34.12
2022-08-09T13:36:40.460Z,33.93
2022-08-09T13:41:17.620Z,34.51
2022-08-09T13:42:05.831Z,34.78
2022-08-09T13:44:42.074Z,34.58
2022-08-09T13:47:31.486Z,34.92
2022-08-09T13:50:01.842Z,34.75
2022-08-09T13:52:33.330Z,35.19
2022-08-09T13:55:05.101Z,34.75
2022-08-09T13:57:39.757Z,35.02
2022-08-09T14:00:13.143Z,35.07
2022-08-09T14:03:03.366Z,34.61
2022-08-09T14:06:01.247Z,34.81
2022-08-09T14:08:26.860Z,34.45
2022-08-09T14:10:56.559Z,34.21
2022-08-09T14:14:15.128Z,33.91
2022-08-09T14:16:17.643Z,34.29
2022-08-09T14:18:49.428Z,34.15
2022-08-09T14:21:20.873Z,34.33
2022-08-09T14:23:54.575Z,34.23
2022-08-09T14:26:31.682Z,34.39
2022-08-09T14:29:08.112Z,34.25
2022-08-09T14:31:54.825Z,34.50
2022-08-09T14:34:30.757Z,34.30
2022-08-09T14:37:00.303Z,34.59
2022-08-09T14:39:39.944Z,34.68
2022-08-09T14:42:30.565Z,34.68
2022-08-09T14:46:57.106Z,34.36
2022-08-09T14:47:58.479Z,34.20
2022-08-09T14:50:30.498Z,33.83
2022-08-09T14:52:59.300Z,33.68
2022-08-09T14:55:29.152Z,34.59
2022-08-09T14:58:03.014Z,35.66
2022-08-09T15:00:34.374Z,35.19
2022-08-09T15:03:08.808Z,34.98
2022-08-09T15:05:39.759Z,34.83
2022-08-09T15:08:18.963Z,35.16
2022-08-09T15:11:00.692Z,34.88
2022-08-09T15:13:48.471Z,34.62
2022-08-09T15:16:30.630Z,33.68
2022-08-09T15:19:02.478Z,33.91
2022-08-09T15:21:58.617Z,34.28
2022-08-09T15:24:30.331Z,33.84
2022-08-09T15:26:59.703Z,33.69
2022-08-09T15:30:57.009Z,33.73
2022-08-09T15:32:28.616Z,34.03
2022-08-09T15:35:40.175Z,33.74
2022-08-09T15:37:56.943Z,33.74
2022-08-09T15:40:43.739Z,34.14
2022-08-09T15:43:14.785Z,33.49
2022-08-09T15:46:07.528Z,34.03
2022-08-09T15:48:35.860Z,34.16
2022-08-09T15:51:29.988Z,34.30
2022-08-09T15:54:05.276Z,34.47
2022-08-09T15:56:40.913Z,34.48
2022-08-09T15:59:09.339Z,34.08
2022-08-09T16:01:38.126Z,33.77
2022-08-09T16:04:13.453Z,33.92
2022-08-09T16:06:44.791Z,33.85
2022-08-09T16:09:19.268Z,33.96
2022-08-09T16:12:03.882Z,33.58
2022-08-09T16:14:32.767Z,33.98
2022-08-09T16:17:01.497Z,33.89
2022-08-09T16:19:36.515Z,33.49
2022-08-09T16:22:05.207Z,33.56
2022-08-09T16:24:34.270Z,33.44
2022-08-09T16:27:05.254Z,33.34
2022-08-09T16:30:07.585Z,33.49
2022-08-09T16:33:01.394Z,33.17
2022-08-09T16:35:56.903Z,33.64
2022-08-09T16:38:21.205Z,33.49
2022-08-09T16:40:53.301Z,33.55
2022-08-09T16:43:22.882Z,33.25
2022-08-09T16:45:54.315Z,33.30
2022-08-09T16:48:41.277Z,33.21
2022-08-09T16:51:14.253Z,33.06
2022-08-09T16:54:24.830Z,33.21
2022-08-09T16:56:48.995Z,33.45
2022-08-09T16:59:20.705Z,33.50
2022-08-09T17:01:51.371Z,33.53
2022-08-09T17:04:28.413Z,33.68
2022-08-09T17:08:47.089Z,33.93
2022-08-09T17:09:51.161Z,34.21
2022-08-09T17:12:19.740Z,34.53
2022-08-09T17:14:51.506Z,34.66
2022-08-09T17:17:26.707Z,35.10
2022-08-09T17:20:30.296Z,35.22
2022-08-09T17:22:50.269Z,35.09
2022-08-09T17:25:22.260Z,35.13
2022-08-09T17:27:55.399Z,35.19
2022-08-09T17:30:25.782Z,34.79
2022-08-09T17:33:00.702Z,35.07
2022-08-09T17:35:35.118Z,35.21
2022-08-09T17:38:13.756Z,35.24
2022-08-09T17:40:55.366Z,35.54
2022-08-09T17:43:34.618Z,35.63
2022-08-09T17:46:09.191Z,35.83
2022-08-09T17:48:51.687Z,35.92
2022-08-09T17:51:21.984Z,36.23
2022-08-09T17:53:55.486Z,36.01
2022-08-09T17:56:28.878Z,35.92
2022-08-09T17:59:09.371Z,35.89
2022-08-09T18:01:58.225Z,36.00
2022-08-09T18:04:30.280Z,36.00
2022-08-09T18:07:00.031Z,36.28
2022-08-09T18:09:41.588Z,36.41
2022-08-09T18:12:17.734Z,36.52
2022-08-09T18:14:54.660Z,36.67
2022-08-09T18:18:00.848Z,36.83
2022-08-09T18:20:57.444Z,36.95
2022-08-09T18:23:05.738Z,37.33
2022-08-09T18:25:52.547Z,38.09
2022-08-09T18:30:34.774Z,37.94
2022-08-09T18:31:19.222Z,38.21
2022-08-09T18:34:01.979Z,38.22
2022-08-09T18:36:31.900Z,38.53
2022-08-09T18:39:02.729Z,38.63
2022-08-09T18:41:37.061Z,38.75
2022-08-09T18:44:13.593Z,39.48
2022-08-09T18:46:50.073Z,39.49
2022-08-09T18:49:41.288Z,39.70
2022-08-09T18:52:12.121Z,40.50
2022-08-09T18:54:52.688Z,40.28
2022-08-09T18:57:24.213Z,40.62
2022-08-09T19:00:19.127Z,40.91
2022-08-09T19:02:51.045Z,41.06
2022-08-09T19:05:48.738Z,41.14
2022-08-09T19:08:10.662Z,41.61
2022-08-09T19:10:48.065Z,41.79
2022-08-09T19:13:23.184Z,41.79
2022-08-09T19:16:07.391Z,42.06
2022-08-09T19:18:45.661Z,42.45
2022-08-09T19:21:14.712Z,42.51
2022-08-09T19:24:35.953Z,42.88
2022-08-09T19:26:34.913Z,42.83
2022-08-09T19:29:15.128Z,42.92
2022-08-09T19:31:52.651Z,43.13
2022-08-09T19:34:28.362Z,43.53
2022-08-09T19:36:58.353Z,43.81
2022-08-09T19:40:02.840Z,44.04
2022-08-09T19:42:28.357Z,44.13
2022-08-09T19:44:59.648Z,44.33
2022-08-09T19:47:27.769Z,44.56
2022-08-09T19:50:09.218Z,45.04
2022-08-09T19:52:49.400Z,45.27
2022-08-09T19:55:30.383Z,45.44
2022-08-09T19:58:16.546Z,45.79
2022-08-09T20:00:47.594Z,46.04
2022-08-09T20:04:11.400Z,46.09
2022-08-09T20:06:22.454Z,46.08
2022-08-09T20:08:52.632Z,46.80
2022-08-09T20:11:26.554Z,47.06
2022-08-09T20:13:55.721Z,46.97
2022-08-09T20:16:34.770Z,47.26
2022-08-09T20:19:49.274Z,47.32
2022-08-09T20:22:00.312Z,47.37
2022-08-09T20:24:33.761Z,47.76
2022-08-09T20:27:05.602Z,48.16
2022-08-09T20:32:48.142Z,48.41
2022-08-09T20:35:17.384Z,48.56
2022-08-09T20:38:21.508Z,48.57
2022-08-09T20:40:34.512Z,48.82
2022-08-09T20:43:18.166Z,49.00
2022-08-09T20:46:01.407Z,49.03
2022-08-09T20:48:38.374Z,49.59
2022-08-09T20:51:07.963Z,49.63
2022-08-09T20:53:48.956Z,49.75
2022-08-09T20:56:21.812Z,49.64
2022-08-09T20:58:57.836Z,49.96
2022-08-09T21:01:34.297Z,50.01
2022-08-09T21:05:54.127Z,50.24
2022-08-09T21:07:14.117Z,50.35
2022-08-09T21:09:45.849Z,50.36
2022-08-09T21:12:56.456Z,50.70
2022-08-09T21:15:13.562Z,51.03
2022-08-09T21:18:22.980Z,51.04
2022-08-09T21:20:33.193Z,51.19
2022-08-09T21:23:04.291Z,51.02
2022-08-09T21:25:55.575Z,51.07
2022-08-09T21:28:33.307Z,51.27
2022-08-09T21:31:13.608Z,51.31
2022-08-09T21:33:50.551Z,51.54
2022-08-09T21:36:22.939Z,51.58
2022-08-09T21:38:57.166Z,51.74
2022-08-09T21:42:04.871Z,51.95
2022-08-09T21:44:33.000Z,52.32
2022-08-09T21:47:05.449Z,52.53
2022-08-09T21:49:39.613Z,52.47
2022-08-09T21:52:15.115Z,52.55
2022-08-09T21:54:46.076Z,52.42
2022-08-09T21:57:37.563Z,52.64
2022-08-09T22:00:08.962Z,52.54
2022-08-09T22:02:38.054Z,52.83
2022-08-09T22:05:22.301Z,52.90
2022-08-09T22:07:54.233Z,52.99
2022-08-09T22:10:24.409Z,53.13
2022-08-09T22:12:55.551Z,53.11
2022-08-09T22:15:34.638Z,53.07
2022-08-09T22:18:04.105Z,53.44
2022-08-09T22:20:36.161Z,53.84
2022-08-09T22:23:05.639Z,53.84
2022-08-09T22:26:07.323Z,53.97
2022-08-09T22:28:33.044Z,54.06
2022-08-09T22:31:04.058Z,53.88
2022-08-09T22:33:45.541Z,53.98
2022-08-09T22:36:19.398Z,53.88
2022-08-09T22:38:49.253Z,54.01
2022-08-09T22:41:19.417Z,54.17
2022-08-09T22:44:02.145Z,54.04
2022-08-09T22:48:14.399Z,54.49
2022-08-09T22:49:20.494Z,54.65
2022-08-09T22:51:57.461Z,54.96
2022-08-09T22:54:27.769Z,54.92
2022-08-09T22:56:57.116Z,54.78
2022-08-09T22:59:55.978Z,55.12
2022-08-09T23:02:16.109Z,55.02
2022-08-09T23:04:53.710Z,55.20
2022-08-09T23:08:27.284Z,55.46
2022-08-09T23:10:30.725Z,55.77
2022-08-09T23:13:01.225Z,55.88
2022-08-09T23:15:33.923Z,56.03
2022-08-09T23:18:13.344Z,56.33
2022-08-09T23:20:45.981Z,56.53
2022-08-09T23:23:15.172Z,56.55
2022-08-09T23:25:47.772Z,56.79
2022-08-09T23:28:16.326Z,56.94
2022-08-09T23:30:51.360Z,57.05
2022-08-09T23:33:20.487Z,57.33
2022-08-09T23:36:04.732Z,57.50
2022-08-09T23:38:35.026Z,57.51
2022-08-09T23:41:05.499Z,57.69
2022-08-09T23:43:34.147Z,57.91
2022-08-09T23:46:02.332Z,58.46
2022-08-09T23:48:30.488Z,58.90
2022-08-09T23:50:59.065Z,59.08
2022-08-09T23:53:28.994Z,59.06
2022-08-09T23:56:06.161Z,59.20
2022-08-09T23:58:35.182Z,59.83
